sensor_id;sensor_type;location;lat;lon;timestamp;temperature;humidity
73438;DHT22;66471;56.532;21.020;2023-07-31T06:05:01;19.00;86.40
73438;DHT22;66471;56.532;21.020;2023-07-31T06:07:28;18.90;87.20
73438;DHT22;66471;56.532;21.020;2023-07-31T06:09:55;19.00;86.90
73438;DHT22;66471;56.532;21.020;2023-07-31T06:12:24;19.10;85.40
73438;DHT22;66471;56.532;21.020;2023-07-31T06:14:52;19.30;85.10
73438;DHT22;66471;56.532;21.020;2023-07-31T06:17:19;19.30;83.00
73438;DHT22;66471;56.532;21.020;2023-07-31T06:19:46;19.50;83.30
73438;DHT22;66471;56.532;21.020;2023-07-31T06:22:13;19.30;84.50
73438;DHT22;66471;56.532;21.020;2023-07-31T06:24:40;19.20;85.00
73438;DHT22;66471;56.532;21.020;2023-07-31T06:27:07;19.30;85.30
73438;DHT22;66471;56.532;21.020;2023-07-31T06:29:35;19.20;85.00
73438;DHT22;66471;56.532;21.020;2023-07-31T06:32:02;19.20;84.70
73438;DHT22;66471;56.532;21.020;2023-07-31T06:34:30;19.40;83.90
73438;DHT22;66471;56.532;21.020;2023-07-31T06:36:57;19.50;83.70
73438;DHT22;66471;56.532;21.020;2023-07-31T06:39:24;19.50;83.80
73438;DHT22;66471;56.532;21.020;2023-07-31T06:41:51;19.40;83.50
73438;DHT22;66471;56.532;21.020;2023-07-31T06:44:18;19.30;83.00
73438;DHT22;66471;56.532;21.020;2023-07-31T06:46:45;19.30;82.70
73438;DHT22;66471;56.532;21.020;2023-07-31T06:49:12;19.40;83.50
73438;DHT22;66471;56.532;21.020;2023-07-31T06:51:43;19.40;83.00
73438;DHT22;66471;56.532;21.020;2023-07-31T06:54:11;19.40;83.70
73438;DHT22;66471;56.532;21.020;2023-07-31T06:56:38;19.60;83.90
73438;DHT22;66471;56.532;21.020;2023-07-31T06:59:07;19.60;83.90
73438;DHT22;66471;56.532;21.020;2023-07-31T07:01:34;19.70;84.10
73438;DHT22;66471;56.532;21.020;2023-07-31T07:04:02;19.60;84.00
73438;DHT22;66471;56.532;21.020;2023-07-31T07:06:29;19.50;82.10
73438;DHT22;66471;56.532;21.020;2023-07-31T07:08:56;19.40;81.50
73438;DHT22;66471;56.532;21.020;2023-07-31T07:11:23;19.20;79.80
73438;DHT22;66471;56.532;21.020;2023-07-31T07:13:50;19.00;83.40
73438;DHT22;66471;56.532;21.020;2023-07-31T07:16:17;18.60;86.60
73438;DHT22;66471;56.532;21.020;2023-07-31T07:18:44;18.20;87.50
73438;DHT22;66471;56.532;21.020;2023-07-31T07:21:28;17.80;90.90
73438;DHT22;66471;56.532;21.020;2023-07-31T07:23:55;17.30;88.40
73438;DHT22;66471;56.532;21.020;2023-07-31T07:26:22;17.20;89.30
73438;DHT22;66471;56.532;21.020;2023-07-31T07:28:49;17.10;91.10
73438;DHT22;66471;56.532;21.020;2023-07-31T07:31:16;17.10;90.80
73438;DHT22;66471;56.532;21.020;2023-07-31T07:33:44;17.20;92.30
73438;DHT22;66471;56.532;21.020;2023-07-31T07:36:11;17.30;92.30
73438;DHT22;66471;56.532;21.020;2023-07-31T07:38:39;17.40;92.70
73438;DHT22;66471;56.532;21.020;2023-07-31T07:41:07;17.60;94.20
73438;DHT22;66471;56.532;21.020;2023-07-31T07:43:40;17.70;95.40
73438;DHT22;66471;56.532;21.020;2023-07-31T07:46:08;18.00;96.20
73438;DHT22;66471;56.532;21.020;2023-07-31T07:48:37;18.30;94.30
73438;DHT22;66471;56.532;21.020;2023-07-31T07:51:05;18.70;94.90
73438;DHT22;66471;56.532;21.020;2023-07-31T07:53:32;19.20;91.50
73438;DHT22;66471;56.532;21.020;2023-07-31T07:55:59;20.00;88.00
73438;DHT22;66471;56.532;21.020;2023-07-31T07:58:26;20.70;83.00
73438;DHT22;66471;56.532;21.020;2023-07-31T08:00:53;21.40;80.90
73438;DHT22;66471;56.532;21.020;2023-07-31T08:03:21;21.90;77.00
73438;DHT22;66471;56.532;21.020;2023-07-31T08:05:48;22.20;76.80
73438;DHT22;66471;56.532;21.020;2023-07-31T08:08:16;22.60;76.40
73438;DHT22;66471;56.532;21.020;2023-07-31T08:10:44;22.20;73.80
73438;DHT22;66471;56.532;21.020;2023-07-31T08:13:11;21.20;74.90
73438;DHT22;66471;56.532;21.020;2023-07-31T08:15:41;20.90;75.80
73438;DHT22;66471;56.532;21.020;2023-07-31T08:18:09;21.70;74.50
73438;DHT22;66471;56.532;21.020;2023-07-31T08:20:37;22.50;72.80
73438;DHT22;66471;56.532;21.020;2023-07-31T08:23:04;23.60;70.70
73438;DHT22;66471;56.532;21.020;2023-07-31T08:25:38;24.20;64.10
73438;DHT22;66471;56.532;21.020;2023-07-31T08:28:06;23.60;65.00
73438;DHT22;66471;56.532;21.020;2023-07-31T08:30:33;23.30;66.30
73438;DHT22;66471;56.532;21.020;2023-07-31T08:33:01;24.00;64.00
73438;DHT22;66471;56.532;21.020;2023-07-31T08:35:28;24.70;61.20
73438;DHT22;66471;56.532;21.020;2023-07-31T08:37:56;24.90;61.10
73438;DHT22;66471;56.532;21.020;2023-07-31T08:40:23;25.20;58.20
73438;DHT22;66471;56.532;21.020;2023-07-31T10:32:15;27.90;50.10
73438;DHT22;66471;56.532;21.020;2023-07-31T10:34:43;28.00;47.50
73438;DHT22;66471;56.532;21.020;2023-07-31T10:40:16;28.90;47.50
73438;DHT22;66471;56.532;21.020;2023-07-31T10:45:25;29.10;46.30
73438;DHT22;66471;56.532;21.020;2023-07-31T10:48:00;28.80;45.00
73438;DHT22;66471;56.532;21.020;2023-07-31T10:50:29;28.20;48.00
73438;DHT22;66471;56.532;21.020;2023-07-31T10:52:57;28.80;46.30
73438;DHT22;66471;56.532;21.020;2023-07-31T10:58:06;28.10;47.40
73438;DHT22;66471;56.532;21.020;2023-07-31T11:00:40;27.60;48.80
73438;DHT22;66471;56.532;21.020;2023-07-31T11:03:16;27.80;47.70
73438;DHT22;66471;56.532;21.020;2023-07-31T11:05:51;28.30;46.10
73438;DHT22;66471;56.532;21.020;2023-07-31T11:08:26;27.70;47.00
73438;DHT22;66471;56.532;21.020;2023-07-31T11:13:33;29.00;45.50
73438;DHT22;66471;56.532;21.020;2023-07-31T11:16:01;28.50;47.80
73438;DHT22;66471;56.532;21.020;2023-07-31T11:18:28;29.10;45.40
73438;DHT22;66471;56.532;21.020;2023-07-31T11:20:55;28.60;46.70
73438;DHT22;66471;56.532;21.020;2023-07-31T11:23:23;28.20;47.60
73438;DHT22;66471;56.532;21.020;2023-07-31T11:25:51;27.30;48.50
73438;DHT22;66471;56.532;21.020;2023-07-31T11:28:20;28.30;46.10
73438;DHT22;66471;56.532;21.020;2023-07-31T11:30:47;28.30;46.70
73438;DHT22;66471;56.532;21.020;2023-07-31T11:33:14;28.80;46.60
73438;DHT22;66471;56.532;21.020;2023-07-31T11:35:47;28.70;46.10
73438;DHT22;66471;56.532;21.020;2023-07-31T11:38:26;28.40;46.20
73438;DHT22;66471;56.532;21.020;2023-07-31T11:41:04;28.70;45.30
73438;DHT22;66471;56.532;21.020;2023-07-31T11:43:32;28.10;46.90
73438;DHT22;66471;56.532;21.020;2023-07-31T11:46:00;27.30;46.50
73438;DHT22;66471;56.532;21.020;2023-07-31T11:48:36;27.30;47.70
73438;DHT22;66471;56.532;21.020;2023-07-31T11:51:06;27.50;46.70
73438;DHT22;66471;56.532;21.020;2023-07-31T11:53:44;27.60;46.40
73438;DHT22;66471;56.532;21.020;2023-07-31T11:56:14;26.90;48.50
73438;DHT22;66471;56.532;21.020;2023-07-31T11:58:47;27.00;46.40
73438;DHT22;66471;56.532;21.020;2023-07-31T12:01:18;27.70;45.90
73438;DHT22;66471;56.532;21.020;2023-07-31T12:03:47;28.90;42.90
73438;DHT22;66471;56.532;21.020;2023-07-31T12:06:14;28.60;43.10
73438;DHT22;66471;56.532;21.020;2023-07-31T12:08:42;27.90;43.50
73438;DHT22;66471;56.532;21.020;2023-07-31T12:11:09;28.50;42.20
73438;DHT22;66471;56.532;21.020;2023-07-31T12:13:36;28.80;41.90
73438;DHT22;66471;56.532;21.020;2023-07-31T12:16:04;27.40;43.70
73438;DHT22;66471;56.532;21.020;2023-07-31T12:18:36;27.50;45.20
73438;DHT22;66471;56.532;21.020;2023-07-31T12:21:08;28.10;43.30
73438;DHT22;66471;56.532;21.020;2023-07-31T12:23:36;28.40;42.60
73438;DHT22;66471;56.532;21.020;2023-07-31T12:26:17;27.70;43.40
73438;DHT22;66471;56.532;21.020;2023-07-31T12:28:49;27.90;43.60
73438;DHT22;66471;56.532;21.020;2023-07-31T12:31:19;27.90;42.50
73438;DHT22;66471;56.532;21.020;2023-07-31T12:33:48;27.20;43.90
73438;DHT22;66471;56.532;21.020;2023-07-31T12:36:20;27.50;43.40
73438;DHT22;66471;56.532;21.020;2023-07-31T12:38:47;28.20;43.30
73438;DHT22;66471;56.532;21.020;2023-07-31T12:41:15;29.20;41.10
73438;DHT22;66471;56.532;21.020;2023-07-31T12:43:43;29.40;40.60
73438;DHT22;66471;56.532;21.020;2023-07-31T12:46:11;28.30;42.50
73438;DHT22;66471;56.532;21.020;2023-07-31T12:48:39;28.60;42.30
73438;DHT22;66471;56.532;21.020;2023-07-31T12:51:06;28.40;41.60
73438;DHT22;66471;56.532;21.020;2023-07-31T12:53:35;28.60;42.80
73438;DHT22;66471;56.532;21.020;2023-07-31T12:56:03;28.50;42.20
73438;DHT22;66471;56.532;21.020;2023-07-31T12:58:30;27.30;43.30
73438;DHT22;66471;56.532;21.020;2023-07-31T13:00:58;26.80;44.70
73438;DHT22;66471;56.532;21.020;2023-07-31T13:03:25;27.30;45.00
73438;DHT22;66471;56.532;21.020;2023-07-31T13:05:53;26.60;46.40
73438;DHT22;66471;56.532;21.020;2023-07-31T13:08:20;27.10;47.10
73438;DHT22;66471;56.532;21.020;2023-07-31T13:10:47;27.40;46.30
73438;DHT22;66471;56.532;21.020;2023-07-31T13:13:15;28.80;44.00
73438;DHT22;66471;56.532;21.020;2023-07-31T13:15:43;28.90;44.20
73438;DHT22;66471;56.532;21.020;2023-07-31T13:18:11;29.10;41.80
73438;DHT22;66471;56.532;21.020;2023-07-31T13:20:38;29.40;42.70
73438;DHT22;66471;56.532;21.020;2023-07-31T13:23:05;29.80;40.10
73438;DHT22;66471;56.532;21.020;2023-07-31T13:25:32;29.40;41.10
73438;DHT22;66471;56.532;21.020;2023-07-31T13:28:00;28.80;43.30
73438;DHT22;66471;56.532;21.020;2023-07-31T13:30:29;28.60;43.30
73438;DHT22;66471;56.532;21.020;2023-07-31T13:32:56;28.30;44.40
73438;DHT22;66471;56.532;21.020;2023-07-31T13:35:23;28.10;46.40
73438;DHT22;66471;56.532;21.020;2023-07-31T13:37:51;28.30;45.10
73438;DHT22;66471;56.532;21.020;2023-07-31T13:40:18;27.90;46.70
73438;DHT22;66471;56.532;21.020;2023-07-31T13:42:45;27.50;46.30
73438;DHT22;66471;56.532;21.020;2023-07-31T13:45:14;27.40;45.40
73438;DHT22;66471;56.532;21.020;2023-07-31T13:47:42;27.20;47.30
73438;DHT22;66471;56.532;21.020;2023-07-31T13:50:09;27.00;47.20
73438;DHT22;66471;56.532;21.020;2023-07-31T13:52:37;27.00;46.80
73438;DHT22;66471;56.532;21.020;2023-07-31T13:55:04;26.90;47.70
73438;DHT22;66471;56.532;21.020;2023-07-31T13:57:32;26.40;48.00
73438;DHT22;66471;56.532;21.020;2023-07-31T14:00:00;26.30;51.70
73438;DHT22;66471;56.532;21.020;2023-07-31T14:02:27;25.70;51.60
73438;DHT22;66471;56.532;21.020;2023-07-31T14:04:54;25.70;50.00
73438;DHT22;66471;56.532;21.020;2023-07-31T14:07:21;26.10;50.60
73438;DHT22;66471;56.532;21.020;2023-07-31T14:09:49;26.00;50.40
73438;DHT22;66471;56.532;21.020;2023-07-31T14:12:16;25.40;52.20
73438;DHT22;66471;56.532;21.020;2023-07-31T14:15:03;24.60;56.60
73438;DHT22;66471;56.532;21.020;2023-07-31T14:17:30;25.10;55.20
73438;DHT22;66471;56.532;21.020;2023-07-31T14:19:58;25.20;54.80
73438;DHT22;66471;56.532;21.020;2023-07-31T14:22:30;25.30;54.60
73438;DHT22;66471;56.532;21.020;2023-07-31T14:24:57;25.00;53.30
73438;DHT22;66471;56.532;21.020;2023-07-31T14:27:25;24.50;54.40
73438;DHT22;66471;56.532;21.020;2023-07-31T14:29:52;24.50;55.80
73438;DHT22;66471;56.532;21.020;2023-07-31T14:32:21;24.10;55.20
73438;DHT22;66471;56.532;21.020;2023-07-31T14:34:50;24.20;56.50
73438;DHT22;66471;56.532;21.020;2023-07-31T14:37:20;25.20;53.00
73438;DHT22;66471;56.532;21.020;2023-07-31T14:39:47;25.10;53.40
73438;DHT22;66471;56.532;21.020;2023-07-31T14:42:17;25.80;52.10
73438;DHT22;66471;56.532;21.020;2023-07-31T14:44:47;25.80;50.60
73438;DHT22;66471;56.532;21.020;2023-07-31T14:47:16;25.80;50.20
73438;DHT22;66471;56.532;21.020;2023-07-31T14:49:45;25.70;50.60
73438;DHT22;66471;56.532;21.020;2023-07-31T14:52:12;25.50;51.70
73438;DHT22;66471;56.532;21.020;2023-07-31T14:54:39;24.90;53.20
73438;DHT22;66471;56.532;21.020;2023-07-31T14:57:07;24.80;54.10
73438;DHT22;66471;56.532;21.020;2023-07-31T14:59:34;24.40;55.90
73438;DHT22;66471;56.532;21.020;2023-07-31T15:02:02;24.20;56.90
73438;DHT22;66471;56.532;21.020;2023-07-31T15:04:29;23.90;57.60
73438;DHT22;66471;56.532;21.020;2023-07-31T15:06:57;22.60;61.10
73438;DHT22;66471;56.532;21.020;2023-07-31T15:09:24;21.60;63.50
73438;DHT22;66471;56.532;21.020;2023-07-31T15:11:51;21.60;64.70
73438;DHT22;66471;56.532;21.020;2023-07-31T15:14:20;21.90;63.10
73438;DHT22;66471;56.532;21.020;2023-07-31T15:16:47;22.40;61.60
73438;DHT22;66471;56.532;21.020;2023-07-31T15:19:15;22.50;60.90
73438;DHT22;66471;56.532;21.020;2023-07-31T15:21:42;21.50;64.00
73438;DHT22;66471;56.532;21.020;2023-07-31T15:24:09;21.10;65.00
73438;DHT22;66471;56.532;21.020;2023-07-31T15:26:38;21.50;66.10
73438;DHT22;66471;56.532;21.020;2023-07-31T15:29:07;21.40;67.70
73438;DHT22;66471;56.532;21.020;2023-07-31T15:31:38;21.70;65.00
73438;DHT22;66471;56.532;21.020;2023-07-31T15:34:06;22.10;61.70
73438;DHT22;66471;56.532;21.020;2023-07-31T15:36:34;22.70;62.20
73438;DHT22;66471;56.532;21.020;2023-07-31T15:39:01;22.80;63.70
73438;DHT22;66471;56.532;21.020;2023-07-31T15:41:28;22.90;64.80
